Flugplatz Kerken (UL)

Hier findest Du alle Informationen zum Flugplatz Kerken (UL).

Informationen für Piloten zum Flugplatz Kerken

Hier findest Du alle relevanten Informationen, die Du als Pilot benötigst, um Kerken anzufliegen.

Flugplatz: Kerken ICAO-Code: UL Flugplatz
Frequenz Turm: 123,425 Mhz GAFOR Gebiet: 31
Frequenz Ground: 123,425 Mhz Mogas: nein
Platzrunde: W 500 ft Landegebühr: 0 €
Platzhöhe: - Sunrise: 06:07 Uhr UTC
Pisten: 02/20 - 280 m x 20 m, GRAS Sunset: 16:29 Uhr UTC

Mitglieder, die in Kerken fliegen

Flugwetter am Flugplatz Kerken

Die METAR Information stammen aus EDLN (23.66 km entfernt).

METAR Code:
2020/10/16 08:50
EDLN 160850Z 01005KT 330V040 9999 BKN015 09/07 Q1022

Flugschulen am Flugplatz Kerken

Am Flugplatz Kerken gibt es leider keine Flugschule.

Benachbarte Flugplätze und Flugschulen

Es gibt 16 weitere Flugplätze in einem Umkreis von 50 km um den Flugplatz Kerken.

Jetzt anmelden

Passwort vergessen

Umfrage Archiv

Wären Rettungsgeräte keine Pflicht mehr, würdet Ihr Euer UL trotzdem mit einem ausstatten?

Ja
86.4 %
Nein
13.6 %
Stimmen: 354 | Diskussion
Anzeige: Roland Aircraft
Statistik Alle Mitglieder

Aktuell sind 41 Besucher online, davon 5 Mitglieder und 36 Gäste.


Mitglieder online:
Heli  landrecovery  elanbaby  forester  Schnickes 

Anzeige: VFR Sprechfunk Simulator


Anzeige: Pocket FMS